createdAt,value
2019-06-07T00:01:23.611Z,22.10
2019-06-07T00:03:53.591Z,22.10
2019-06-07T00:06:25.468Z,22.10
2019-06-07T00:08:55.264Z,22.00
2019-06-07T00:11:25.225Z,22.00
2019-06-07T00:13:56.799Z,21.90
2019-06-07T00:16:26.742Z,22.00
2019-06-07T00:18:56.787Z,22.10
2019-06-07T00:22:12.741Z,22.20
2019-06-07T00:23:58.423Z,22.20
2019-06-07T00:26:28.466Z,22.30
2019-06-07T00:28:58.481Z,22.10
2019-06-07T00:31:28.545Z,22.20
2019-06-07T00:33:58.550Z,21.50
2019-06-07T00:36:28.606Z,21.20
2019-06-07T00:38:58.619Z,21.30
2019-06-07T00:41:28.530Z,20.80
2019-06-07T00:43:58.551Z,20.40
2019-06-07T00:46:28.542Z,20.80
2019-06-07T00:48:58.503Z,21.10
2019-06-07T00:51:49.184Z,21.40
2019-06-07T00:54:00.332Z,21.60
2019-06-07T00:56:30.249Z,21.30
2019-06-07T00:59:11.417Z,20.80
2019-06-07T01:01:32.125Z,20.40
2019-06-07T01:04:02.104Z,20.70
2019-06-07T01:06:32.206Z,21.20
2019-06-07T01:09:02.169Z,21.50
2019-06-07T01:11:33.763Z,21.50
2019-06-07T01:14:05.505Z,21.40
2019-06-07T01:16:55.576Z,21.50
2019-06-07T01:19:07.776Z,21.40
2019-06-07T01:21:37.848Z,20.90
2019-06-07T01:24:12.279Z,20.10
2019-06-07T01:26:39.506Z,20.10
2019-06-07T01:29:09.512Z,19.90
2019-06-07T01:31:39.611Z,19.90
2019-06-07T01:34:09.660Z,20.20
2019-06-07T01:36:39.633Z,20.40
2019-06-07T01:39:09.653Z,20.80
2019-06-07T01:41:39.656Z,21.10
2019-06-07T01:44:09.705Z,21.20
2019-06-07T01:46:39.703Z,21.20
2019-06-07T01:49:09.666Z,21.30
2019-06-07T01:51:39.677Z,20.90
2019-06-07T01:56:41.460Z,20.20
2019-06-07T01:59:12.414Z,20.10
2019-06-07T02:01:42.419Z,20.20
2019-06-07T02:04:12.484Z,20.20
2019-06-07T02:06:42.609Z,20.20
2019-06-07T02:09:12.739Z,20.40
2019-06-07T02:11:42.755Z,20.50
2019-06-07T02:14:12.847Z,20.40
2019-06-07T02:16:42.887Z,20.20
2019-06-07T02:19:13.014Z,20.20
2019-06-07T02:21:43.168Z,20.30
2019-06-07T02:24:13.176Z,20.30
2019-06-07T02:26:43.107Z,20.30
2019-06-07T02:29:14.310Z,20.00
2019-06-07T02:31:44.493Z,20.10
2019-06-07T02:34:14.508Z,20.00
2019-06-07T02:36:44.424Z,19.90
2019-06-07T02:39:15.965Z,19.90
2019-06-07T02:41:46.089Z,19.90
2019-06-07T02:44:17.636Z,19.60
2019-06-07T02:46:49.994Z,19.60
2019-06-07T02:49:19.337Z,19.50
2019-06-07T02:51:49.329Z,19.40
2019-06-07T02:54:19.412Z,19.30
2019-06-07T02:56:57.812Z,19.20
2019-06-07T02:59:47.213Z,19.10
2019-06-07T03:01:54.991Z,19.20
2019-06-07T03:04:29.520Z,19.40
2019-06-07T03:07:00.399Z,19.60
2019-06-07T03:09:34.327Z,19.70
2019-06-07T03:12:04.492Z,19.70
2019-06-07T03:14:36.037Z,19.60
2019-06-07T03:17:07.781Z,19.60
2019-06-07T03:19:43.940Z,19.60
2019-06-07T03:22:15.037Z,19.60
2019-06-07T03:24:45.652Z,19.60
2019-06-07T03:27:35.075Z,19.40
2019-06-07T03:29:48.051Z,19.30
2019-06-07T03:32:17.975Z,19.20
2019-06-07T03:34:47.903Z,19.20
2019-06-07T03:37:17.962Z,19.10
2019-06-07T03:39:48.032Z,18.80
2019-06-07T03:42:18.026Z,18.80
2019-06-07T03:44:48.133Z,18.70
2019-06-07T03:47:18.107Z,18.70
2019-06-07T03:49:48.046Z,18.90
2019-06-07T03:52:18.036Z,18.80
2019-06-07T03:54:48.072Z,18.80
2019-06-07T03:57:18.125Z,18.90
2019-06-07T03:59:48.159Z,18.90
2019-06-07T04:02:18.137Z,18.80
2019-06-07T04:04:49.265Z,18.80
2019-06-07T04:07:19.319Z,18.90
2019-06-07T04:09:49.275Z,18.80
2019-06-07T04:12:19.320Z,18.30
2019-06-07T04:14:49.246Z,18.00
2019-06-07T04:17:19.256Z,18.30
2019-06-07T04:19:49.499Z,18.70
2019-06-07T04:22:19.550Z,18.80
2019-06-07T04:24:49.812Z,18.90
2019-06-07T04:27:19.903Z,19.20
2019-06-07T04:30:06.505Z,18.70
2019-06-07T04:32:21.487Z,18.10
2019-06-07T04:34:51.558Z,17.70
2019-06-07T04:37:22.689Z,18.20
2019-06-07T04:39:53.834Z,18.80
2019-06-07T04:42:25.583Z,19.10
2019-06-07T04:44:55.908Z,19.30
2019-06-07T04:47:27.413Z,19.50
2019-06-07T04:50:00.178Z,19.80
2019-06-07T04:52:32.533Z,19.90
2019-06-07T04:55:01.862Z,19.70
2019-06-07T04:57:34.613Z,19.90
2019-06-07T05:00:46.730Z,20.00
2019-06-07T05:02:40.290Z,20.00
2019-06-07T05:05:10.520Z,19.80
2019-06-07T05:07:46.138Z,19.70
2019-06-07T05:10:12.187Z,19.50
2019-06-07T05:12:44.123Z,19.70
2019-06-07T05:15:15.236Z,19.60
2019-06-07T05:17:45.392Z,19.60
2019-06-07T05:20:16.107Z,19.80
2019-06-07T05:22:46.366Z,19.80
2019-06-07T05:25:16.884Z,19.80
2019-06-07T05:27:47.155Z,19.90
2019-06-07T05:30:59.721Z,20.20
2019-06-07T05:32:52.114Z,19.60
2019-06-07T05:35:22.435Z,20.00
2019-06-07T05:37:52.425Z,20.20
2019-06-07T05:40:32.986Z,20.70
2019-06-07T05:43:03.842Z,21.20
2019-06-07T05:45:38.484Z,21.40
2019-06-07T05:48:07.610Z,21.60
2019-06-07T05:50:44.915Z,22.00
2019-06-07T05:53:09.263Z,21.90
2019-06-07T05:55:44.160Z,22.10
2019-06-07T05:58:10.982Z,22.30
2019-06-07T06:00:43.777Z,22.20
2019-06-07T06:03:12.771Z,21.60
2019-06-07T06:05:50.293Z,22.00
2019-06-07T06:08:14.499Z,22.60
2019-06-07T06:10:48.705Z,23.10
2019-06-07T06:13:17.762Z,23.80
2019-06-07T06:16:00.525Z,24.40
2019-06-07T06:18:19.467Z,24.40
2019-06-07T06:21:09.738Z,24.00
2019-06-07T06:23:21.289Z,23.70
2019-06-07T06:25:56.975Z,22.70
2019-06-07T06:28:24.159Z,22.80
2019-06-07T06:30:54.234Z,23.60
2019-06-07T06:33:33.512Z,24.40
2019-06-07T06:35:56.114Z,24.20
2019-06-07T06:38:26.216Z,24.30
2019-06-07T06:41:14.425Z,24.20
2019-06-07T06:43:27.836Z,24.20
2019-06-07T06:45:57.750Z,24.00
2019-06-07T06:48:27.779Z,24.40
2019-06-07T06:50:57.762Z,24.30
2019-06-07T06:53:27.784Z,24.20
2019-06-07T06:55:57.774Z,23.60
2019-06-07T06:58:27.792Z,23.90
2019-06-07T07:01:06.546Z,23.60
2019-06-07T07:03:57.659Z,22.90
2019-06-07T07:06:24.760Z,23.10
2019-06-07T07:08:33.420Z,23.20
2019-06-07T07:11:03.490Z,22.90
2019-06-07T07:13:33.704Z,23.00
2019-06-07T07:16:04.260Z,23.50
2019-06-07T07:18:34.327Z,24.00
2019-06-07T07:21:04.484Z,24.50
2019-06-07T07:23:34.631Z,23.20
2019-06-07T07:26:04.991Z,23.80
2019-06-07T07:28:34.989Z,23.00
2019-06-07T07:31:05.113Z,23.00
2019-06-07T07:36:28.189Z,24.00
2019-06-07T07:38:38.450Z,24.00
2019-06-07T07:41:15.233Z,24.00
2019-06-07T07:43:40.185Z,24.30
2019-06-07T07:46:28.335Z,24.60
2019-06-07T07:48:41.929Z,23.90
2019-06-07T07:51:11.962Z,24.40
2019-06-07T07:53:52.027Z,25.30
2019-06-07T07:56:14.709Z,24.50
2019-06-07T07:58:48.606Z,24.30
2019-06-07T08:01:16.437Z,23.70
2019-06-07T08:03:48.038Z,23.50
2019-06-07T08:06:18.216Z,23.40
2019-06-07T08:08:48.818Z,23.80
2019-06-07T08:11:18.869Z,23.80
2019-06-07T08:13:50.482Z,24.10
2019-06-07T08:16:20.600Z,24.40
2019-06-07T08:18:56.248Z,24.40
2019-06-07T08:21:26.548Z,23.90
2019-06-07T08:24:00.435Z,24.90
2019-06-07T08:26:27.473Z,25.30
2019-06-07T08:29:02.330Z,25.80
2019-06-07T08:31:29.156Z,25.80
2019-06-07T08:34:00.876Z,25.80
2019-06-07T08:36:41.980Z,25.80
2019-06-07T08:39:07.259Z,25.90
2019-06-07T08:41:34.450Z,25.40
2019-06-07T08:44:22.781Z,26.00
2019-06-07T08:46:37.995Z,26.40
2019-06-07T08:49:08.063Z,26.60
2019-06-07T08:51:39.292Z,26.60
2019-06-07T08:54:22.226Z,26.50
2019-06-07T08:56:43.513Z,26.60
2019-06-07T08:59:13.866Z,26.10
2019-06-07T09:01:44.026Z,26.80
2019-06-07T09:04:14.008Z,26.70
2019-06-07T09:09:15.639Z,29.10
2019-06-07T09:11:45.666Z,29.40
2019-06-07T09:14:15.645Z,29.50
2019-06-07T09:16:45.603Z,29.70
2019-06-07T09:19:15.962Z,31.10
2019-06-07T09:21:47.052Z,30.80
2019-06-07T09:24:16.983Z,29.00
2019-06-07T09:26:50.474Z,29.00
2019-06-07T09:29:22.461Z,29.50
2019-06-07T09:31:53.757Z,31.70
2019-06-07T09:34:24.192Z,28.00
2019-06-07T09:36:58.135Z,30.50
2019-06-07T09:39:26.628Z,30.10
2019-06-07T09:41:58.717Z,28.60
2019-06-07T09:44:28.587Z,30.70
2019-06-07T09:47:20.585Z,32.10
2019-06-07T09:49:32.641Z,31.30
2019-06-07T09:52:06.750Z,31.00
2019-06-07T09:57:15.971Z,33.20
2019-06-07T09:59:37.116Z,30.30
2019-06-07T10:02:13.213Z,31.20
2019-06-07T10:04:39.079Z,30.00
2019-06-07T10:07:28.522Z,30.60
2019-06-07T10:12:12.587Z,32.90
2019-06-07T10:14:45.051Z,32.90
2019-06-07T10:17:14.614Z,33.30
2019-06-07T10:19:44.823Z,31.90
2019-06-07T10:22:14.937Z,32.50
2019-06-07T10:24:45.020Z,32.80
2019-06-07T10:27:15.131Z,31.40
2019-06-07T10:29:45.099Z,29.90
2019-06-07T10:32:15.120Z,29.90
2019-06-07T10:34:45.095Z,29.80
2019-06-07T10:37:15.874Z,31.80
2019-06-07T10:39:48.895Z,32.70
2019-06-07T10:42:18.967Z,33.60
2019-06-07T10:44:48.936Z,32.30
2019-06-07T10:47:18.957Z,30.50
2019-06-07T10:49:49.126Z,28.90
2019-06-07T10:52:19.202Z,29.10
2019-06-07T10:54:49.189Z,29.50
2019-06-07T10:57:19.111Z,31.90
2019-06-07T10:59:49.496Z,29.90
2019-06-07T11:02:19.701Z,31.90
2019-06-07T11:04:49.654Z,33.40
2019-06-07T11:07:19.651Z,32.00
2019-06-07T11:10:05.743Z,33.80
2019-06-07T11:12:21.372Z,31.90
2019-06-07T11:14:51.351Z,30.30
2019-06-07T11:17:21.467Z,30.80
2019-06-07T11:19:52.942Z,32.80
2019-06-07T11:22:23.017Z,30.40
2019-06-07T11:24:53.038Z,29.50
2019-06-07T11:27:23.018Z,30.90
2019-06-07T11:29:52.926Z,30.80
2019-06-07T11:32:22.938Z,31.00
2019-06-07T11:34:54.111Z,32.80
2019-06-07T11:37:24.131Z,35.20
2019-06-07T11:39:54.872Z,31.30
2019-06-07T11:42:24.811Z,30.40
2019-06-07T11:44:57.045Z,31.00
2019-06-07T11:47:26.481Z,32.50
2019-06-07T11:49:56.534Z,31.90
2019-06-07T11:52:26.686Z,32.00
2019-06-07T11:54:56.651Z,31.60
2019-06-07T11:57:27.653Z,32.10
2019-06-07T11:59:57.633Z,33.40
2019-06-07T12:02:27.664Z,34.00
2019-06-07T12:04:57.705Z,33.20
2019-06-07T12:07:27.626Z,31.80
2019-06-07T12:09:57.613Z,32.60
2019-06-07T12:12:27.641Z,32.20
2019-06-07T12:14:57.563Z,33.50
2019-06-07T12:17:27.579Z,33.40
2019-06-07T12:19:57.563Z,31.60
2019-06-07T12:22:27.564Z,30.40
2019-06-07T12:24:57.485Z,30.20
2019-06-07T12:27:27.505Z,31.70
2019-06-07T12:29:57.500Z,31.70
2019-06-07T12:32:27.514Z,31.90
2019-06-07T12:34:57.492Z,31.30
2019-06-07T12:37:42.455Z,31.10
2019-06-07T12:39:59.125Z,32.10
2019-06-07T12:42:29.135Z,30.70
2019-06-07T12:44:59.221Z,31.90
2019-06-07T12:47:29.300Z,32.70
2019-06-07T12:49:59.298Z,33.00
2019-06-07T12:52:29.357Z,32.20
2019-06-07T12:54:59.480Z,31.30
2019-06-07T12:57:29.561Z,30.10
2019-06-07T12:59:59.573Z,30.30
2019-06-07T13:02:29.579Z,31.10
2019-06-07T13:05:03.738Z,30.90
2019-06-07T13:07:31.279Z,30.50
2019-06-07T13:10:01.308Z,29.90
2019-06-07T13:12:31.507Z,29.00
2019-06-07T13:15:01.566Z,29.20
2019-06-07T13:17:31.667Z,29.10
2019-06-07T13:20:01.694Z,29.60
2019-06-07T13:22:31.730Z,30.00
2019-06-07T13:25:01.714Z,29.50
2019-06-07T13:27:33.569Z,29.40
2019-06-07T13:30:10.102Z,29.70
2019-06-07T13:32:36.984Z,28.80
2019-06-07T13:35:08.269Z,29.00
2019-06-07T13:37:38.323Z,28.80
2019-06-07T13:40:09.651Z,28.70
2019-06-07T13:42:39.805Z,29.20
2019-06-07T13:45:11.329Z,29.40
2019-06-07T13:47:41.540Z,28.10
2019-06-07T13:50:13.640Z,28.10
2019-06-07T13:52:46.282Z,28.40
2019-06-07T13:55:15.957Z,28.40
2019-06-07T13:57:45.967Z,28.50
2019-06-07T14:00:16.210Z,28.70
2019-06-07T14:02:46.146Z,28.50
2019-06-07T14:05:16.494Z,28.30
2019-06-07T14:07:46.509Z,28.10
2019-06-07T14:10:16.626Z,28.20
2019-06-07T14:12:46.634Z,28.30
2019-06-07T14:15:18.291Z,28.60
2019-06-07T14:17:48.294Z,28.80
2019-06-07T14:20:18.346Z,28.50
2019-06-07T14:22:53.896Z,28.30
2019-06-07T14:25:22.800Z,28.60
2019-06-07T14:27:53.213Z,28.60
2019-06-07T14:30:23.955Z,28.80
2019-06-07T14:32:54.282Z,28.90
2019-06-07T14:35:24.537Z,28.40
2019-06-07T14:37:54.628Z,28.40
2019-06-07T14:40:25.399Z,28.50
2019-06-07T14:42:55.486Z,28.20
2019-06-07T14:45:25.601Z,28.50
2019-06-07T14:47:55.528Z,28.40
2019-06-07T14:50:26.096Z,28.20
2019-06-07T14:52:56.171Z,28.10
2019-06-07T14:55:26.967Z,28.30
2019-06-07T14:57:57.065Z,28.00
2019-06-07T15:00:41.776Z,28.30
2019-06-07T15:03:11.877Z,28.00
2019-06-07T15:05:44.145Z,27.90
2019-06-07T15:08:14.219Z,28.30
2019-06-07T15:10:44.267Z,28.10
2019-06-07T15:13:14.298Z,28.20
2019-06-07T15:15:44.281Z,28.50
2019-06-07T15:18:14.471Z,28.70
2019-06-07T15:20:46.847Z,28.20
2019-06-07T15:23:16.963Z,28.30
2019-06-07T15:25:46.951Z,28.20
2019-06-07T15:28:17.027Z,28.20
2019-06-07T15:30:47.055Z,28.00
2019-06-07T15:33:17.047Z,28.10
2019-06-07T15:35:47.096Z,28.20
2019-06-07T15:38:17.108Z,28.20
2019-06-07T15:40:47.179Z,28.10
2019-06-07T15:43:18.437Z,27.90
2019-06-07T15:45:48.466Z,27.90
2019-06-07T15:48:19.305Z,28.00
2019-06-07T15:50:49.333Z,28.00
2019-06-07T15:53:19.458Z,27.90
2019-06-07T15:55:49.488Z,27.90
2019-06-07T15:58:19.569Z,28.00
2019-06-07T16:00:50.208Z,28.10
2019-06-07T16:03:20.355Z,28.30
2019-06-07T16:05:50.413Z,27.90
2019-06-07T16:08:20.644Z,28.00
2019-06-07T16:10:52.303Z,27.90
2019-06-07T16:13:22.319Z,27.90
2019-06-07T16:15:52.326Z,27.70
2019-06-07T16:18:22.391Z,27.80
2019-06-07T16:20:52.392Z,28.20
2019-06-07T16:23:22.327Z,27.90
2019-06-07T16:25:52.334Z,27.70
2019-06-07T16:28:22.263Z,27.50
2019-06-07T16:30:53.861Z,27.60
2019-06-07T16:33:24.695Z,27.80
2019-06-07T16:35:54.762Z,28.00
2019-06-07T16:38:24.683Z,28.10
2019-06-07T16:40:54.689Z,27.90
2019-06-07T16:43:24.672Z,27.80
2019-06-07T16:45:54.625Z,27.50
2019-06-07T16:48:24.791Z,27.40
2019-06-07T16:50:54.855Z,27.60
2019-06-07T16:53:24.890Z,27.50
2019-06-07T16:55:54.885Z,27.60
2019-06-07T16:58:24.940Z,27.80
2019-06-07T17:00:55.388Z,27.70
2019-06-07T17:03:26.601Z,27.50
2019-06-07T17:05:56.629Z,27.50
2019-06-07T17:08:26.631Z,27.30
2019-06-07T17:10:56.628Z,27.30
2019-06-07T17:13:33.344Z,27.40
2019-06-07T17:15:58.267Z,27.40
2019-06-07T17:18:28.183Z,27.50
2019-06-07T17:20:58.349Z,27.50
2019-06-07T17:23:28.323Z,27.40
2019-06-07T17:25:58.271Z,27.30
2019-06-07T17:28:28.262Z,27.20
2019-06-07T17:30:58.275Z,27.10
2019-06-07T17:33:31.478Z,27.20
2019-06-07T17:36:01.648Z,27.10
2019-06-07T17:38:31.799Z,27.20
2019-06-07T17:41:01.844Z,27.40
2019-06-07T17:43:31.961Z,27.60
2019-06-07T17:46:01.982Z,27.70
2019-06-07T17:48:31.908Z,27.60
2019-06-07T17:51:01.947Z,27.70
2019-06-07T17:53:31.923Z,27.50
2019-06-07T17:56:01.921Z,27.50
2019-06-07T17:58:31.989Z,27.70
2019-06-07T18:01:02.112Z,27.80
2019-06-07T18:03:32.251Z,27.30
2019-06-07T18:06:03.534Z,26.90
2019-06-07T18:08:33.805Z,26.80
2019-06-07T18:11:03.851Z,26.70
2019-06-07T18:13:33.864Z,26.70
2019-06-07T18:16:03.964Z,26.70
2019-06-07T18:18:34.012Z,26.60
2019-06-07T18:21:04.133Z,26.50
2019-06-07T18:23:34.177Z,26.60
2019-06-07T18:26:04.245Z,26.60
2019-06-07T18:28:34.946Z,26.40
2019-06-07T18:31:05.015Z,26.10
2019-06-07T18:33:35.100Z,26.10
2019-06-07T18:36:05.268Z,26.00
2019-06-07T18:38:35.280Z,25.90
2019-06-07T18:41:05.290Z,25.80
2019-06-07T18:43:35.319Z,25.70
2019-06-07T18:46:05.430Z,25.70
2019-06-07T18:48:35.975Z,25.70
2019-06-07T18:51:06.186Z,25.80
2019-06-07T18:53:36.278Z,25.90
2019-06-07T18:56:06.403Z,26.00
2019-06-07T18:58:36.528Z,26.20
2019-06-07T19:01:06.598Z,26.50
2019-06-07T19:03:36.584Z,26.50
2019-06-07T19:06:06.753Z,26.30
2019-06-07T19:08:37.050Z,26.40
2019-06-07T19:11:07.161Z,26.50
2019-06-07T19:13:37.235Z,26.40
2019-06-07T19:16:07.330Z,26.00
2019-06-07T19:18:37.317Z,26.00
2019-06-07T19:21:07.355Z,25.90
2019-06-07T19:23:37.288Z,25.70
2019-06-07T19:26:07.403Z,25.90
2019-06-07T19:28:37.471Z,26.00
2019-06-07T19:31:09.504Z,26.00
2019-06-07T19:33:48.704Z,26.10
2019-06-07T19:36:11.233Z,26.00
2019-06-07T19:38:41.172Z,25.50
2019-06-07T19:41:19.285Z,25.50
2019-06-07T19:43:42.904Z,25.50
2019-06-07T19:46:12.894Z,25.50
2019-06-07T19:48:46.080Z,25.40
2019-06-07T19:51:16.033Z,25.40
2019-06-07T19:53:46.111Z,25.50
2019-06-07T19:56:16.146Z,25.60
2019-06-07T19:58:46.262Z,25.70
2019-06-07T20:01:18.020Z,25.70
2019-06-07T20:03:49.670Z,25.90
2019-06-07T20:06:19.764Z,25.70
2019-06-07T20:08:49.864Z,25.50
2019-06-07T20:11:19.934Z,25.60
2019-06-07T20:13:50.262Z,25.50
2019-06-07T20:16:20.444Z,25.20
2019-06-07T20:18:50.447Z,24.90
2019-06-07T20:21:20.448Z,24.80
2019-06-07T20:23:50.508Z,24.90
2019-06-07T20:26:20.642Z,24.70
2019-06-07T20:28:50.642Z,24.80
2019-06-07T20:31:20.703Z,24.50
2019-06-07T20:33:50.748Z,24.50
2019-06-07T20:36:20.963Z,24.50
2019-06-07T20:38:50.948Z,24.40
2019-06-07T20:41:21.013Z,24.40
2019-06-07T20:43:51.081Z,24.50
2019-06-07T20:46:21.334Z,24.50
2019-06-07T20:48:51.289Z,24.60
2019-06-07T20:51:21.472Z,24.60
2019-06-07T20:53:51.702Z,24.70
2019-06-07T20:56:24.576Z,24.40
2019-06-07T20:58:53.408Z,24.30
2019-06-07T21:01:23.439Z,24.30
2019-06-07T21:03:53.388Z,24.30
2019-06-07T21:06:23.471Z,24.30
2019-06-07T21:08:53.483Z,24.20
2019-06-07T21:11:24.427Z,24.40
2019-06-07T21:13:56.819Z,24.40
2019-06-07T21:16:26.856Z,24.50
2019-06-07T21:18:56.838Z,24.30
2019-06-07T21:21:26.847Z,24.30
2019-06-07T21:23:56.802Z,24.30
2019-06-07T21:26:26.963Z,24.30
2019-06-07T21:28:56.954Z,24.40
2019-06-07T21:31:27.042Z,24.10
2019-06-07T21:33:58.366Z,24.10
2019-06-07T21:36:28.373Z,24.10
2019-06-07T21:38:58.440Z,24.30
2019-06-07T21:41:28.425Z,24.10
2019-06-07T21:43:58.371Z,24.00
2019-06-07T21:46:29.457Z,24.10
2019-06-07T21:48:59.581Z,23.90
2019-06-07T21:51:29.683Z,23.70
2019-06-07T21:53:59.686Z,23.50
2019-06-07T21:56:29.716Z,23.60
2019-06-07T21:58:59.684Z,23.60
2019-06-07T22:01:30.659Z,23.60
2019-06-07T22:04:00.723Z,23.60
2019-06-07T22:06:30.834Z,23.30
2019-06-07T22:09:00.904Z,23.50
2019-06-07T22:11:32.612Z,23.40
2019-06-07T22:14:04.148Z,23.30
2019-06-07T22:16:34.472Z,23.40
2019-06-07T22:19:04.627Z,23.30
2019-06-07T22:21:34.787Z,23.40
2019-06-07T22:24:04.916Z,23.20
2019-06-07T22:26:34.865Z,23.30
2019-06-07T22:29:06.174Z,23.30
2019-06-07T22:31:37.669Z,23.10
2019-06-07T22:34:08.797Z,23.00
2019-06-07T22:36:38.967Z,22.90
2019-06-07T22:39:09.649Z,22.80
2019-06-07T22:41:40.446Z,22.70
2019-06-07T22:44:12.804Z,22.70
2019-06-07T22:46:42.840Z,22.60
2019-06-07T22:49:13.367Z,22.90
2019-06-07T22:51:43.361Z,23.40
2019-06-07T22:54:14.019Z,23.40
2019-06-07T22:56:58.052Z,23.10
2019-06-07T22:59:28.135Z,23.10
2019-06-07T23:01:58.075Z,23.30
2019-06-07T23:04:28.121Z,23.30
2019-06-07T23:06:58.073Z,23.20
2019-06-07T23:09:28.132Z,23.20
2019-06-07T23:11:58.172Z,23.20
2019-06-07T23:14:28.237Z,23.50
2019-06-07T23:16:58.291Z,23.70
2019-06-07T23:19:28.283Z,24.10
2019-06-07T23:21:58.291Z,23.80
2019-06-07T23:24:28.216Z,23.90
2019-06-07T23:26:58.175Z,23.90
2019-06-07T23:29:28.153Z,23.70
2019-06-07T23:31:58.200Z,24.00
2019-06-07T23:34:28.200Z,24.00
2019-06-07T23:36:58.143Z,24.00
2019-06-07T23:39:29.159Z,23.90
2019-06-07T23:41:59.224Z,23.90
2019-06-07T23:44:29.186Z,23.90
2019-06-07T23:47:10.789Z,23.60
2019-06-07T23:49:30.871Z,23.70
2019-06-07T23:52:00.885Z,23.70
2019-06-07T23:54:30.970Z,23.70
2019-06-07T23:57:00.983Z,23.70
2019-06-07T23:59:31.019Z,23.50
